Latest Weather Observations for kunanyi / Mount Wellington

IDT60901

Issued at 10:11 pm EDT Friday 24 November 2017 (issued every 10 minutes, with the page automatically refreshed every 10 minutes)

About weather observations | Map of Hobart area stations | Latest observations for Hobart area | Other Formats
Station Details ID: 094087 Name: KUNANYI (MOUNT WELLINGTON PINNACLE) Lat: -42.90 Lon: 147.24 Height: 1260.47 m
Data from the previous 72 hours. | See also: Recent months at kunanyi / Mount Wellington
Date/Time
EDT
Temp
°C
App
Temp
°C
Dew
Point
°C
Rel
Hum
%
Delta-T
°C
Wind Press
QNH
hPa
Press
MSL
hPa
Rain since
9am
mm
Dir  Spd
km/h
Gust
km/h
Spd
kts
Gust
kts
24/10:00pm 11.4 8.1 9.5 88 1.0 NNW 17 24 9 13 - - 0.2
24/09:30pm 11.5 8.8 9.1 85 1.3 NW 13 17 7 9 - - 0.2
24/09:00pm 11.9 8.8 8.7 81 1.7 NNW 15 19 8 10 - - 0.2
24/08:30pm 11.7 9.0 9.1 84 1.4 NNW 13 19 7 10 - - 0.2
24/08:00pm 12.1 8.3 8.9 81 1.7 N 19 28 10 15 - - 0.2
24/07:30pm 12.1 9.4 9.1 82 1.6 N 13 17 7 9 - - 0.2
24/07:00pm 12.3 10.0 9.1 81 1.7 NNE 11 15 6 8 - - 0.0
24/06:30pm 12.0 9.7 10.4 90 0.9 NNE 13 20 7 11 - - 0.0
24/06:00pm 12.8 10.6 10.7 87 1.2 N 13 19 7 10 - - 0.0
24/05:30pm 14.1 13.0 11.8 86 1.3 NNW 9 17 5 9 - - 0.0
24/05:00pm 14.8 13.9 10.8 77 2.3 NW 6 9 3 5 - - 0.0
24/04:30pm 14.5 13.6 11.5 82 1.7 N 7 11 4 6 - - 0.0
24/04:00pm 16.0 14.2 11.0 72 2.8 WSW 11 17 6 9 - - 0.0
24/03:30pm 15.3 14.6 11.3 77 2.3 NE 6 9 3 5 - - 0.0
24/03:00pm 16.2 15.0 11.6 74 2.7 NNW 9 17 5 9 - - 0.0
24/02:30pm 17.0 15.5 11.9 72 3.0 N 11 20 6 11 - - 0.0
24/02:00pm 16.0 14.2 10.7 71 3.0 NW 11 20 6 11 - - 0.0
24/01:30pm 14.2 13.0 10.2 77 2.2 NNW 7 15 4 8 - - 0.0
24/01:00pm 14.7 13.4 10.1 74 2.6 N 7 13 4 7 - - 0.0
24/12:30pm 14.9 13.7 9.5 70 3.0 N 6 9 3 5 - - 0.0
24/12:00pm 16.0 14.7 10.1 68 3.3 N 7 11 4 6 - - 0.0
24/11:30am 15.6 14.1 9.3 66 3.5 W 7 11 4 6 - - 0.0
24/11:00am 14.7 12.5 9.3 70 3.0 SW 11 17 6 9 - - 0.0
24/10:30am 15.5 12.9 9.2 66 3.5 WSW 13 19 7 10 - - 0.0
24/10:00am 16.4 13.7 8.9 61 4.1 SW 13 19 7 10 - - 0.0
24/09:30am 15.3 11.2 8.8 65 3.5 SW 20 26 11 14 - - 0.0
24/09:00am 14.7 12.5 9.5 71 2.9 SW 11 15 6 8 - - 0.0
24/08:30am 15.0 12.1 8.3 64 3.6 NW 13 19 7 10 - - 0.0
24/08:00am 15.1 11.0 7.9 62 3.8 WNW 19 24 10 13 - - 0.0
24/07:30am 15.3 12.1 8.3 63 3.8 NW 15 20 8 11 - - 0.0
24/07:00am 14.3 11.8 8.3 67 3.2 NNW 11 15 6 8 - - 0.0
24/06:30am 13.7 11.2 8.3 70 2.9 NNW 11 13 6 7 - - 0.0
24/06:00am 13.0 10.3 7.2 68 3.0 NNW 11 15 6 8 - - 0.0
24/05:30am 13.0 9.8 6.8 66 3.2 NNW 13 15 7 8 - - 0.0
24/05:00am 13.0 9.6 5.9 62 3.6 NNW 13 15 7 8 - - 0.0
24/04:30am 13.3 9.6 6.4 63 3.5 NNW 15 17 8 9 - - 0.0
24/04:00am 13.3 9.6 6.4 63 3.5 NNW 15 17 8 9 - - 0.0
24/03:30am 13.2 9.5 6.3 63 3.5 NNW 15 17 8 9 - - 0.0
24/03:00am 13.2 9.7 7.0 66 3.2 NNW 15 17 8 9 - - 0.0
24/02:30am 12.9 9.6 8.2 73 2.5 NNW 15 17 8 9 - - 0.0
24/02:00am 12.1 9.5 9.3 83 1.5 NW 13 13 7 7 - - 0.0
24/01:30am 11.4 9.2 9.3 87 1.1 NNW 11 13 6 7 - - 0.0
24/01:00am 11.7 9.5 9.4 86 1.2 N 11 13 6 7 - - 0.0
24/12:30am 11.7 9.3 8.6 81 1.6 NNE 11 13 6 7 - - 0.0
24/12:00am 12.0 9.9 8.1 77 2.1 NE 9 11 5 6 - - 0.0
 
Date/Time
EDT
Temp
°C
App
Temp
°C
Dew
Point
°C
Rel
Hum
%
Delta-T
°C
Wind Press
QNH
hPa
Press
MSL
hPa
Rain since
9am
mm
Dir  Spd
km/h
Gust
km/h
Spd
kts
Gust
kts
23/11:30pm 12.0 10.1 7.5 74 2.3 E 7 9 4 5 - - 0.0
23/11:00pm 11.7 9.9 7.0 73 2.4 ESE 6 7 3 4 - - 0.0
23/10:30pm 10.9 8.4 3.9 62 3.3 SE 6 9 3 5 - - 0.0
23/10:00pm 11.2 8.2 4.0 61 3.5 SE 9 13 5 7 - - 0.0
23/09:30pm 11.1 6.5 3.9 61 3.4 S 17 24 9 13 - - 0.0
23/09:00pm 10.9 5.0 2.0 54 4.1 S 22 35 12 19 - - 0.0
23/08:30pm 10.8 4.8 3.4 60 3.5 S 24 33 13 18 - - 0.0
23/08:00pm 11.1 4.6 4.6 64 3.2 S 28 39 15 21 - - 0.0
23/07:30pm 11.7 7.7 8.2 79 1.8 S 19 24 10 13 - - 0.0
23/07:00pm 13.5 11.7 9.6 77 2.1 S 9 17 5 9 - - 0.0
23/06:30pm 15.7 14.6 10.5 71 2.9 S 7 11 4 6 - - 0.0
23/06:00pm 15.0 12.0 10.8 76 2.4 SSW 17 22 9 12 - - 0.0
23/05:30pm 15.5 11.2 10.7 73 2.7 SSW 24 30 13 16 - - 0.0
23/05:00pm 15.0 12.0 10.6 75 2.5 SSE 17 20 9 11 - - 0.0
23/04:30pm 16.2 13.5 10.5 69 3.2 SSE 15 24 8 13 - - 0.0
23/04:00pm 16.9 15.1 10.7 67 3.5 SE 11 17 6 9 - - 0.0
23/03:30pm 17.4 15.8 10.1 62 4.1 SE 9 17 5 9 - - 0.0
23/03:00pm 18.3 16.8 10.4 60 4.5 E 9 15 5 8 - - 0.0
23/02:30pm 19.6 16.6 7.7 46 6.5 E 13 19 7 10 - - 0.0
23/02:00pm 21.4 17.3 6.1 37 8.2 NE 17 26 9 14 - - 0.0
23/01:30pm 19.1 14.9 5.6 41 7.1 NNE 17 26 9 14 - - 0.0
23/01:00pm 20.6 16.2 7.2 42 7.3 N 20 33 11 18 - - 0.0
23/12:30pm 19.7 15.3 7.4 45 6.7 N 20 30 11 16 - - 0.0
23/12:00pm 19.0 15.2 7.4 47 6.3 N 17 28 9 15 - - 0.0
23/11:30am 18.6 14.4 7.4 48 6.1 NNW 19 24 10 13 - - 0.0
23/11:00am 17.7 11.8 5.6 45 6.3 NNW 26 35 14 19 - - 0.0
23/10:30am 16.9 10.8 4.9 45 6.1 NNW 26 37 14 20 - - 0.0
23/10:00am 17.6 11.1 2.8 37 7.3 NNW 26 35 14 19 - - 0.0
23/09:30am 16.9 10.4 2.9 39 6.9 NNW 26 37 14 20 - - 0.0
23/09:00am 17.3 11.2 2.9 38 7.1 NNW 24 35 13 19 - - 0.0
23/08:30am 16.8 10.4 3.1 40 6.7 N 26 33 14 18 - - 0.0
23/08:00am 16.1 10.6 3.9 44 6.1 N 22 33 12 18 - - 0.0
23/07:30am 15.5 9.6 3.9 46 5.7 N 24 33 13 18 - - 0.0
23/07:00am 15.0 9.8 3.8 47 5.5 NNW 20 26 11 14 - - 0.0
23/06:30am 14.6 9.3 3.1 46 5.6 NNW 20 26 11 14 - - 0.0
23/06:00am 14.2 8.4 -0.3 37 6.5 NNW 20 28 11 15 - - 0.0
23/05:30am 14.3 8.0 -0.9 35 6.7 N 22 28 12 15 - - 0.0
23/05:00am 14.3 8.5 -1.7 33 7.0 N 19 22 10 12 - - 0.0
23/04:30am 13.9 8.9 -0.9 36 6.5 N 15 20 8 11 - - 0.0
23/04:00am 14.2 8.8 1.2 41 6.0 N 19 26 10 14 - - 0.0
23/03:30am 13.7 9.2 4.0 52 4.7 N 17 22 9 12 - - 0.0
23/03:00am 13.8 10.3 8.6 71 2.8 NNW 17 20 9 11 - - 0.0
23/02:30am 14.0 10.4 8.4 69 3.0 N 17 20 9 11 - - 0.0
23/02:00am 14.1 10.6 7.4 64 3.5 N 15 17 8 9 - - 0.0
23/01:30am 13.9 11.5 8.5 70 2.9 NNW 11 15 6 8 - - 0.0
23/01:00am 13.9 11.1 8.7 71 2.8 NNW 13 17 7 9 - - 0.0
23/12:30am 14.1 11.2 8.3 68 3.1 NNW 13 17 7 9 - - 0.0
23/12:00am 14.0 11.1 8.2 68 3.1 NNW 13 15 7 8 - - 0.0
 
Date/Time
EDT
Temp
°C
App
Temp
°C
Dew
Point
°C
Rel
Hum
%
Delta-T
°C
Wind Press
QNH
hPa
Press
MSL
hPa
Rain since
9am
mm
Dir  Spd
km/h
Gust
km/h
Spd
kts
Gust
kts
22/11:30pm 14.1 11.2 8.1 67 3.2 NNW 13 17 7 9 - - 0.0
22/11:00pm 14.3 11.0 6.6 60 4.0 N 13 17 7 9 - - 0.0
22/10:30pm 14.5 9.8 1.1 40 6.2 N 15 17 8 9 - - 0.0
22/10:00pm 14.7 10.1 1.3 40 6.2 NE 15 17 8 9 - - 0.0
22/09:30pm 14.8 10.4 0.3 37 6.6 NE 13 17 7 9 - - 0.0
22/09:00pm 15.1 10.8 1.3 39 6.5 NE 13 17 7 9 - - 0.0
22/08:30pm 15.8 11.6 1.5 38 6.8 ENE 13 19 7 10 - - 0.0
22/08:00pm 16.2 12.5 2.2 39 6.7 ENE 11 15 6 8 - - 0.0
22/07:30pm 16.4 12.7 2.4 39 6.8 E 11 15 6 8 - - 0.0
22/07:00pm 16.7 12.6 2.3 38 7.0 E 13 19 7 10 - - 0.0
22/06:30pm 16.8 12.0 0.5 33 7.6 ESE 15 20 8 11 - - 0.0
22/06:00pm 17.6 12.7 -0.6 29 8.4 ESE 15 22 8 12 - - 0.0
22/05:30pm 18.0 13.7 1.1 32 8.1 SE 13 19 7 10 - - 0.0
22/05:00pm 17.8 13.0 2.5 36 7.5 SE 17 22 9 12 - - 0.0
22/04:30pm 18.5 13.7 2.8 35 7.8 SE 17 24 9 13 - - 0.0
22/04:00pm 18.5 13.9 3.6 37 7.5 ESE 17 22 9 12 - - 0.0
22/03:30pm 18.8 14.5 3.4 36 7.7 ESE 15 20 8 11 - - 0.0
22/03:00pm 20.3 16.9 3.9 34 8.4 E 11 15 6 8 - - 0.0
22/02:30pm 20.7 17.4 2.5 30 9.1 NE 9 17 5 9 - - 0.0
22/02:00pm 20.0 16.7 2.4 31 8.7 ENE 9 17 5 9 - - 0.0
22/01:30pm 21.9 16.4 1.6 26 10.0 N 20 30 11 16 - - 0.0
22/01:00pm 21.5 16.8 0.7 25 10.1 NNW 15 30 8 16 - - 0.0
22/12:30pm 20.7 15.9 0.5 26 9.7 NNW 15 22 8 12 - - 0.0
22/12:00pm 20.7 15.3 1.1 27 9.5 N 19 28 10 15 - - 0.0
22/11:30am 20.0 16.4 2.8 32 8.6 NW 11 20 6 11 - - 0.0
22/11:00am 19.3 14.4 1.8 31 8.5 NNW 17 26 9 14 - - 0.0
22/10:30am 18.6 13.6 1.2 31 8.3 N 17 30 9 16 - - 0.0
22/10:00am 18.3 13.3 1.3 32 8.1 N 17 24 9 13 - - 0.0
22/09:30am 18.3 13.6 3.0 36 7.6 N 17 26 9 14 - - 0.0
22/09:00am 17.4 12.9 4.4 42 6.6 NW 17 24 9 13 - - 0.0
22/08:30am 17.1 13.0 4.4 43 6.4 NW 15 20 8 11 - - 0.0
22/08:00am 16.5 13.8 7.4 55 4.9 W 11 15 6 8 - - 0.0
22/07:30am 15.9 13.3 7.9 59 4.3 WSW 11 13 6 7 - - 0.0
22/07:00am 14.8 11.6 6.9 59 4.1 WSW 13 15 7 8 - - 0.0
22/06:30am 14.0 10.3 6.1 59 4.0 WSW 15 19 8 10 - - 0.0
22/06:00am 13.0 9.1 5.4 60 3.8 WSW 15 17 8 9 - - 0.0
22/05:30am 13.2 9.3 3.6 52 4.6 WSW 13 15 7 8 - - 0.0
22/05:00am 13.0 9.2 3.9 54 4.4 WSW 13 17 7 9 - - 0.0
22/04:30am 12.7 9.4 4.7 58 3.9 WSW 11 11 6 6 - - 0.0
22/04:00am 13.3 10.8 4.5 55 4.3 SW 7 9 4 5 - - 0.0
22/03:30am 13.1 10.2 4.5 56 4.2 SW 9 13 5 7 - - 0.0
22/03:00am 14.0 11.0 4.3 52 4.8 SW 9 13 5 7 - - 0.0
22/02:30am 13.5 9.7 4.1 53 4.6 NW 13 15 7 8 - - 0.0
22/02:00am 13.5 10.2 4.4 54 4.5 WNW 11 15 6 8 - - 0.0
22/01:30am 12.5 8.8 4.5 58 3.9 NW 13 17 7 9 - - 0.0
22/01:00am 12.4 9.0 3.9 56 4.1 WNW 11 15 6 8 - - 0.0
22/12:30am 12.8 9.0 3.7 54 4.4 WNW 13 15 7 8 - - 0.0
22/12:00am 13.4 8.8 3.8 52 4.7 NW 17 22 9 12 - - 0.0
 
Date/Time
EDT
Temp
°C
App
Temp
°C
Dew
Point
°C
Rel
Hum
%
Delta-T
°C
Wind Press
QNH
hPa
Press
MSL
hPa
Rain since
9am
mm
Dir  Spd
km/h
Gust
km/h
Spd
kts
Gust
kts
21/11:30pm 14.3 9.0 2.9 46 5.5 NW 20 24 11 13 - - 0.0
21/11:00pm 14.3 9.8 4.3 51 4.9 NW 17 19 9 10 - - 0.0
21/10:30pm 14.3 9.4 1.9 43 5.8 NNW 17 20 9 11 - - 0.0

Latest Capital City Observations: Canberra | Sydney | Melbourne | Brisbane | Adelaide | Perth | Hobart | Darwin

Other Formats:

Comma delimited format used in spreadsheet applications
http://www.bom.gov.au/fwo/IDT60901/IDT60901.95979.axf

JavaScript Object Notation format (JSON) in row-major order
http://www.bom.gov.au/fwo/IDT60901/IDT60901.95979.json